• Join FlightAware (Why Join?)
  • Login
  • US Flag 
03:56AM EDT


 

Airport Tracker/Info


-or-


 

Live Flight TrackerFlight Track Log ✈ LBQ792 ✈ 07-May-2013 ✈ KBWI - KPTW

Flight Track Log - Related Links

Times and Time Zones

All times are in EDT time to prevent confusion due to time zone crossing. See the LBQ792 flight status page for this flight to view local times or setup timezone preferences in your user account.

Time Position Orientation Groundspeed Altitude Reporting Facility
EDT Latitude Longitude Course Direction KTS MPH feet Rate Location/Type
02:26AM 39.2167 -76.6000 38° Northeast 146 168 3,000  Level Potomac TRACON
02:27AM 39.2333 -76.5667 57° Northeast 152 175 4,800 1,800 Climbing Potomac TRACON
02:28AM 39.2667 -76.5333 38° Northeast 156 180 6,700 1,080 Climbing Potomac TRACON
02:29AM 39.3000 -76.4833 49° Northeast 210 242 7,000 120 Climbing Potomac TRACON
02:30AM 39.3500 -76.4167 46° Northeast 237 273 7,000  Level Potomac TRACON
02:31AM 39.3541 -76.4860 34° Northeast  Level FlightAware Approximate
02:31AM 39.4000 -76.3500 46° Northeast 241 277 7,000  Level Potomac TRACON
02:32AM 39.4333 -76.3167 38° Northeast 244 281 7,000  Level Potomac TRACON
02:33AM 39.4833 -76.2500 46° Northeast 244 281 7,000  Level Potomac TRACON
02:35AM 39.5833 -76.1167 46° Northeast 240 276 7,100  Climbing Philadelphia TRACON
02:36AM 39.6333 -76.0500 46° Northeast 242 278 7,100  Level Philadelphia TRACON
02:37AM 39.6833 -75.9833 46° Northeast 240 276 7,100  Level Philadelphia TRACON
02:38AM 39.7333 -75.9167 46° Northeast 242 278 7,100  Level Philadelphia TRACON
02:39AM 39.7667 -75.8667 49° Northeast 239 275 7,100 -60 Level Philadelphia TRACON
02:40AM 39.8167 -75.8000 46° Northeast 238 274 7,000 -480 Descending Philadelphia TRACON
02:41AM 39.8833 -75.7833 11° North 280 322 6,200 -960 Descending Philadelphia TRACON
02:42AM 39.9667 -75.7667 North 258 297 5,100 -1,200 Descending Philadelphia TRACON
02:43AM 40.0333 -75.7667 360° North 241 277 3,900 -1,020 Descending Philadelphia TRACON
02:44AM 40.0667 -75.7333 37° Northeast 199 229 3,100 -420 Descending Philadelphia TRACON
02:45AM 40.0833 -75.6667 72° East 181 208 3,100  Level Philadelphia TRACON
02:46AM 40.0667 -75.6833 217° Southwest 210 242 3,100  Level Philadelphia TRACON
02:47AM 40.1000 -75.7333 311° West 203 234 3,100 -120 Level Philadelphia TRACON
02:48AM 40.1500 -75.7667 333° Northwest 219 252 2,900 -300 Descending Philadelphia TRACON
02:49AM 40.2167 -75.7833 349° North 197 227 2,600 -300 Descending Philadelphia TRACON
02:50AM 40.2167 -75.7333 90° East 145 167 2,300 -180 Descending Philadelphia TRACON
02:51AM 40.2333 -75.6833 66° East 109 125 2,300 -300 Level Philadelphia TRACON
02:52AM 40.2333 -75.6333 90° East 124 143 1,800 -600 Descending Philadelphia TRACON
02:53AM 40.2333 -75.6000 90° East 121 139 1,100 60 Descending Philadelphia TRACON
02:54AM 40.2500 -75.5667 57° Northeast 105 121 2,000 1,020 Climbing Philadelphia TRACON
02:55AM 40.2500 -75.5167 90° East 124 143 3,200 1,020 Climbing Philadelphia TRACON
02:56AM 40.2333 -75.5000 143° Southeast 159 183 4,100 900 Climbing Philadelphia TRACON